Valparaiso, FL

11:26 PM CDT on September 14, 2014 (GMT -0500)
Eglin Air Force Base | Change Station
CLOSE
Current Station
Airport
Location: Valparaiso,
Elevation: 85 ft
Nearby Weather Stations

Elev 85 ft 30.48 °N, 86.53 °W | Updated 31 minutes ago

Mostly Cloudy
Mostly Cloudy
78 °F
Feels Like 78 °F
N
2
Wind Variable Wind from East

Today
High -- | Low -- °F
--% Chance of Precip.
Yesterday
High -- | Low -- °F
Precip. -- in
6:29 AM 6:52 PM
Waning Gibbous, 59% visible
Pressure 30.12 in
Visibility 10.0 miles
Clouds Scattered Clouds 7000 ft
Mostly Cloudy 25000 ft
Dew Point 74 °F
Humidity 87%
Rainfall 0.01 in
Snow Depth Not available.
UV 0 out of 12
Pollen 8.60 out of 12
Ozone Good
PM2.5 Good
Flu Activity Not available.
METAR KVPS 150355Z 09002KT 10SM SCT070 BKN250 26/23 A3010 RMK AO2A SLP198 T02560233 $

More Conditions Fewer Conditions

Pressure 30.12 in
Visibility 10.0 miles
Clouds Scattered Clouds 7000 ft
Mostly Cloudy 25000 ft
Dew Point 74 °F
Humidity 87%
Rainfall 0.01 in
Snow Depth Not available.
UV 0 out of 12
Pollen 8.60 out of 12
Ozone Good
PM2.5 Good
Flu Activity Not available.
METAR KVPS 150355Z 09002KT 10SM SCT070 BKN250 26/23 A3010 RMK AO2A SLP198 T02560233 $

More Conditions Fewer Conditions

10-Day Weather Forecast

Almanac

Astronomy

Sep. 14, 2014 Rise Set
Actual Time 6:29 AM CDT 6:52 PM CDT
Civil Twilight 6:05 AM CDT 7:16 PM CDT
Nautical Twilight 5:37 AM CDT 7:45 PM CDT
Astronomical Twilight 5:08 AM CDT 8:13 PM CDT
Moon 11:08 PM CDT (9/14) 12:12 PM CDT (9/14)
Length of Visible Light 13h 11m
Length of Day
12h 22m
Tomorrow will be 1m 49s shorter.
Waning Gibbous, 59% of the Moon is Illuminated
Sep 15
Waning Gibbous
Sep 15
Last Quarter
Sep 24
New
Oct 1
First Quarter
Oct 8
Full

Today's Extremes

State Highs State Lows

Community

WunderPhotos

Upload Photos

1,753,400 photos uploaded!

Nearby

Air Quality

  Air Quality AQ Index Pollutant
Yesterday Good
PM2.5
Yesterday Good
OZONE
Current Good
PM2.5
Current Good
OZONE
Sunday Good
OZONE
Monday Good
OZONE

Snow Depth

Station Depth Elevation
No new snow has been reported.

Earthquake Activity

City Distance Mag. Time & Date
No recent earthquake activity has been reported nearby.
Minimum magnitude displayed is 2.5.

Coastal Water Temperatures

Place Temperature
No Stations Reporting

Nearby Weather Stations